Time;durP1;ratioP1;P1;durP2;ratioP2;P2;SDS_P1;SDS_P2;PMS_P1;PMS_P2;Temp;Humidity;BMP_temperature;BMP_pressure;BME280_temperature;BME280_humidity;BME280_pressure;Samples;Min_cycle;Max_cycle;Signal;HPM_P1;HPM_P2
2022/05/30 00:00:34;;;;;;;;;;;;;;;22.19;51.59;98748.94;5031533;28;20541;-52
2022/05/30 00:03:00;;;;;;;;;;;;;;;22.09;53.14;98738.34;5031379;28;19916;-52
2022/05/30 00:05:25;;;;;;;;;;;;;;;22.02;52.14;98743.38;5030735;28;19988;-51
2022/05/30 00:07:51;;;;;;;;;;;;;;;22.47;51.04;98742.72;5030889;28;20082;-51
2022/05/30 00:10:17;;;;;;;;;;;;;;;22.47;51.30;98738.09;5031121;28;19916;-51
2022/05/30 00:12:43;;;;;;;;;;;;;;;22.38;51.26;98737.19;5031100;28;20432;-49
2022/05/30 00:15:10;;;;;;;;;;;;;;;22.49;50.78;98738.56;5031257;28;19912;-50
2022/05/30 00:17:35;;;;;;;;;;;;;;;22.63;50.47;98747.44;5030817;28;19909;-50
2022/05/30 00:20:01;;;;;;;;;;;;;;;22.77;50.23;98754.72;5031138;28;20330;-51
2022/05/30 00:22:26;;;;;;;;;;;;;;;22.85;49.77;98756.72;5031109;28;20039;-51
2022/05/30 00:24:51;;;;;;;;;;;;;;;22.71;49.78;98754.03;5031178;28;19952;-51
2022/05/30 00:27:18;;;;;;;;;;;;;;;23.02;49.98;98769.59;5030573;28;19921;-48
2022/05/30 00:29:43;;;;;;;;;;;;;;;23.18;49.00;98768.09;5030932;28;19963;-50
2022/05/30 00:32:08;;;;;;;;;;;;;;;22.74;49.88;98768.91;5030510;28;20025;-50
2022/05/30 00:34:35;;;;;;;;;;;;;;;22.52;50.34;98772.38;5033536;28;20301;-48
2022/05/30 00:37:00;;;;;;;;;;;;;;;22.27;50.75;98771.06;5050274;28;19951;-48
2022/05/30 00:39:26;;;;;;;;;;;;;;;21.85;51.88;98768.34;5050340;28;19924;-49
2022/05/30 00:41:51;;;;;;;;;;;;;;;21.96;50.94;98767.03;5050956;28;19954;-48
2022/05/30 00:44:17;;;;;;;;;;;;;;;21.94;51.28;98771.97;5050447;28;19916;-48
2022/05/30 00:46:42;;;;;;;;;;;;;;;22.05;52.00;98770.66;5049830;28;19920;-47
2022/05/30 00:49:10;;;;;;;;;;;;;;;22.13;50.77;98766.44;5049961;28;19915;-48
2022/05/30 00:51:55;;;;;;;;;;;;;;;21.96;51.25;98761.63;5050592;28;19921;-47
2022/05/30 00:54:33;;;;;;;;;;;;;;;21.98;51.42;98764.03;5049850;28;19917;-47
2022/05/30 00:56:59;;;;;;;;;;;;;;;22.05;51.63;98764.44;5049509;28;19912;-48
2022/05/30 00:59:24;;;;;;;;;;;;;;;22.29;51.20;98760.72;5049811;28;19929;-48
2022/05/30 01:01:50;;;;;;;;;;;;;;;22.35;50.93;98771.16;5050371;28;19916;-48
2022/05/30 01:07:01;;;;;;;;;;;;;;;21.85;51.10;98768.34;5050376;28;19920;-49
2022/05/30 01:09:29;;;;;;;;;;;;;;;21.67;51.13;98775.50;5050214;28;19909;-48
2022/05/30 01:11:59;;;;;;;;;;;;;;;21.74;53.17;98783.19;5050445;28;19910;-48
2022/05/30 01:14:27;;;;;;;;;;;;;;;21.66;51.31;98777.38;5050421;28;19916;-49
2022/05/30 01:16:52;;;;;;;;;;;;;;;21.72;51.45;98778.06;5049926;28;19909;-48
2022/05/30 01:19:18;;;;;;;;;;;;;;;21.96;51.45;98777.88;5050480;28;19919;-50
2022/05/30 01:21:49;;;;;;;;;;;;;;;21.90;51.26;98779.09;5049824;28;19909;-51
2022/05/30 01:24:26;;;;;;;;;;;;;;;22.06;50.47;98780.38;5050164;28;19908;-49
2022/05/30 01:27:00;;;;;;;;;;;;;;;21.52;51.66;98776.56;5049829;28;19912;-49
2022/05/30 01:29:38;;;;;;;;;;;;;;;21.71;51.79;98781.91;5050013;28;20012;-48
2022/05/30 01:32:03;;;;;;;;;;;;;;;21.51;52.18;98776.88;5049694;28;19924;-48
2022/05/30 01:34:29;;;;;;;;;;;;;;;21.97;51.66;98775.97;5047711;28;19908;-51
2022/05/30 01:36:54;;;;;;;;;;;;;;;22.13;50.39;98781.88;5029875;28;19933;-52
2022/05/30 01:39:19;;;;;;;;;;;;;;;22.10;50.68;98782.47;5030553;28;19909;-49
2022/05/30 01:41:45;;;;;;;;;;;;;;;21.69;51.22;98783.31;5029768;28;19908;-50
2022/05/30 01:44:11;;;;;;;;;;;;;;;21.93;50.67;98788.50;5029984;28;19909;-48
2022/05/30 01:46:36;;;;;;;;;;;;;;;21.76;51.87;98787.22;5029634;28;20003;-48
2022/05/30 01:49:02;;;;;;;;;;;;;;;21.92;50.93;98793.13;5030488;28;19909;-47
2022/05/30 01:51:27;;;;;;;;;;;;;;;21.53;52.12;98785.50;5030966;28;19920;-48
2022/05/30 01:53:53;;;;;;;;;;;;;;;21.55;51.92;98786.00;5030472;28;19956;-47
2022/05/30 01:56:18;;;;;;;;;;;;;;;21.35;52.61;98787.94;5030438;28;19909;-49
2022/05/30 01:58:44;;;;;;;;;;;;;;;21.34;52.19;98786.31;5030515;28;20007;-48
2022/05/30 02:01:14;;;;;;;;;;;;;;;21.36;51.82;98791.44;5030643;28;19913;-49
2022/05/30 02:03:40;;;;;;;;;;;;;;;21.18;53.00;98791.22;5030265;28;19909;-48
2022/05/30 02:06:05;;;;;;;;;;;;;;;21.45;51.79;98795.91;5030626;28;19913;-48
2022/05/30 02:08:30;;;;;;;;;;;;;;;21.35;52.35;98785.22;5033577;28;20319;-48
2022/05/30 02:10:55;;;;;;;;;;;;;;;21.16;53.01;98795.31;5034634;28;19971;-49
2022/05/30 02:13:21;;;;;;;;;;;;;;;21.26;52.89;98801.34;5034232;28;19916;-48
2022/05/30 02:18:30;;;;;;;;;;;;;;;21.14;53.39;98801.03;5034372;28;19916;-48
2022/05/30 02:20:55;;;;;;;;;;;;;;;20.97;53.65;98801.56;5034360;28;19912;-48
2022/05/30 02:23:20;;;;;;;;;;;;;;;21.02;53.59;98806.91;5032619;28;20257;-50
2022/05/30 02:25:46;;;;;;;;;;;;;;;20.60;54.72;98813.19;5034216;28;19917;-49
2022/05/30 02:28:11;;;;;;;;;;;;;;;20.96;53.87;98816.19;5033915;28;20007;-50
2022/05/30 02:30:37;;;;;;;;;;;;;;;20.87;55.44;98813.34;5033793;28;20269;-51
2022/05/30 02:38:40;;;;;;;;;;;;;;;20.35;56.97;98811.63;5034328;28;19927;-47
2022/05/30 02:41:06;;;;;;;;;;;;;;;20.20;57.59;98816.13;5033919;28;20233;-52
2022/05/30 02:43:31;;;;;;;;;;;;;;;20.49;56.65;98818.72;5032517;28;19909;-47
2022/05/30 02:45:56;;;;;;;;;;;;;;;20.31;57.47;98812.22;5033252;28;20337;-50
2022/05/30 02:48:21;;;;;;;;;;;;;;;20.23;57.73;98817.44;5033716;28;19916;-49
2022/05/30 02:50:47;;;;;;;;;;;;;;;20.21;58.12;98822.34;5033801;28;19982;-50
2022/05/30 02:53:12;;;;;;;;;;;;;;;20.06;58.80;98842.22;5033680;28;19913;-50
2022/05/30 02:55:37;;;;;;;;;;;;;;;20.22;58.30;98832.03;5034050;28;19982;-49
2022/05/30 02:58:03;;;;;;;;;;;;;;;20.16;58.51;98839.41;5033098;28;20353;-49
2022/05/30 03:00:29;;;;;;;;;;;;;;;20.10;58.40;98848.66;5040922;28;19912;-49
2022/05/30 03:02:54;;;;;;;;;;;;;;;19.81;58.78;98856.81;5053334;28;19931;-47
2022/05/30 03:05:19;;;;;;;;;;;;;;;19.54;59.96;98853.53;5053413;28;20007;-46
2022/05/30 03:07:45;;;;;;;;;;;;;;;19.78;59.77;98870.88;5051433;28;19952;-47
2022/05/30 03:10:10;;;;;;;;;;;;;;;19.68;60.18;98874.44;5051917;28;20357;-49
2022/05/30 03:12:36;;;;;;;;;;;;;;;19.64;59.87;98884.19;5053127;28;20387;-49
2022/05/30 03:15:01;;;;;;;;;;;;;;;19.48;60.53;98891.63;5052863;28;19966;-50
2022/05/30 03:17:26;;;;;;;;;;;;;;;19.62;60.19;98889.06;5052610;28;19921;-50
2022/05/30 03:19:52;;;;;;;;;;;;;;;19.61;60.54;98898.25;5051978;28;19916;-52
2022/05/30 03:22:18;;;;;;;;;;;;;;;19.55;60.40;98897.50;5052768;28;20383;-51
2022/05/30 03:24:43;;;;;;;;;;;;;;;19.73;60.04;98906.81;5052914;28;19908;-49
2022/05/30 03:27:08;;;;;;;;;;;;;;;19.95;59.33;98910.94;5052051;28;20288;-50
2022/05/30 03:29:33;;;;;;;;;;;;;;;19.90;59.40;98912.59;5052099;28;19909;-51
2022/05/30 03:31:59;;;;;;;;;;;;;;;20.22;59.02;98918.47;5051011;28;19964;-49
2022/05/30 03:34:24;;;;;;;;;;;;;;;20.11;58.49;98920.50;5050427;28;19909;-48
2022/05/30 03:36:49;;;;;;;;;;;;;;;20.02;58.50;98925.69;5032623;28;19967;-50
2022/05/30 03:39:15;;;;;;;;;;;;;;;20.25;58.08;98926.81;5032799;28;20369;-48
2022/05/30 03:41:40;;;;;;;;;;;;;;;20.44;57.53;98928.75;5033272;28;19913;-47
2022/05/30 03:44:05;;;;;;;;;;;;;;;20.08;58.13;98938.06;5033285;28;19917;-48
2022/05/30 03:46:32;;;;;;;;;;;;;;;20.50;59.19;98941.94;5032382;28;19917;-49
2022/05/30 03:48:57;;;;;;;;;;;;;;;20.93;56.26;98943.06;5031974;28;19920;-49
2022/05/30 03:51:22;;;;;;;;;;;;;;;21.44;54.79;98950.47;5032739;28;19913;-48
2022/05/30 03:53:49;;;;;;;;;;;;;;;21.50;54.41;98956.63;5033075;28;20334;-51
2022/05/30 03:56:15;;;;;;;;;;;;;;;21.47;54.64;98949.88;5032542;28;19996;-47
2022/05/30 03:58:40;;;;;;;;;;;;;;;21.71;54.77;98951.69;5032420;28;19997;-47
2022/05/30 04:01:06;;;;;;;;;;;;;;;21.62;54.63;98960.44;5032084;28;19913;-47
2022/05/30 04:03:31;;;;;;;;;;;;;;;21.79;54.64;98957.19;5032347;28;19909;-47
2022/05/30 04:05:57;;;;;;;;;;;;;;;22.20;52.70;98955.66;5032160;28;20074;-48
2022/05/30 04:08:22;;;;;;;;;;;;;;;22.02;52.61;98963.56;5038880;28;19920;-48
2022/05/30 04:10:47;;;;;;;;;;;;;;;22.41;51.93;98956.94;5051736;28;19920;-49
2022/05/30 04:13:13;;;;;;;;;;;;;;;22.53;50.97;98961.84;5051928;28;19913;-48
2022/05/30 04:15:38;;;;;;;;;;;;;;;22.44;51.25;98966.38;5052139;28;19908;-49
2022/05/30 04:18:04;;;;;;;;;;;;;;;22.89;52.89;98966.53;5051915;28;19912;-49
2022/05/30 04:20:30;;;;;;;;;;;;;;;23.86;47.83;98973.63;5052166;28;19912;-49
2022/05/30 04:22:55;;;;;;;;;;;;;;;23.87;49.32;98972.50;5045214;28;19909;-48
2022/05/30 04:25:20;;;;;;;;;;;;;;;23.84;47.14;98979.34;5047377;28;19952;-48
2022/05/30 04:27:46;;;;;;;;;;;;;;;23.95;47.37;98967.13;5051162;28;19954;-51
2022/05/30 04:30:11;;;;;;;;;;;;;;;24.57;46.96;98974.44;5050775;28;20073;-46
2022/05/30 04:32:36;;;;;;;;;;;;;;;24.79;46.53;98972.78;5050691;28;19916;-48
2022/05/30 04:35:03;;;;;;;;;;;;;;;25.12;44.18;98972.34;5042494;28;19963;-50
2022/05/30 04:37:28;;;;;;;;;;;;;;;25.49;43.61;98970.13;5049956;28;19905;-50
2022/05/30 04:39:54;;;;;;;;;;;;;;;25.67;44.09;98973.66;5050533;28;19908;-47
2022/05/30 04:42:19;;;;;;;;;;;;;;;26.10;43.23;98979.03;5050739;28;19939;-48
2022/05/30 04:44:45;;;;;;;;;;;;;;;25.80;42.38;98985.47;5050201;28;20262;-49
2022/05/30 04:47:11;;;;;;;;;;;;;;;25.62;42.84;98987.44;5050390;28;20308;-48
2022/05/30 04:49:37;;;;;;;;;;;;;;;25.59;42.67;98983.44;5047068;28;19952;-51
2022/05/30 04:52:03;;;;;;;;;;;;;;;25.56;42.68;98989.50;5037107;28;20450;-51
2022/05/30 04:54:28;;;;;;;;;;;;;;;26.02;42.45;98990.75;5039449;28;19917;-49
2022/05/30 04:56:53;;;;;;;;;;;;;;;25.16;42.98;98998.59;5040322;28;19915;-49
2022/05/30 04:59:18;;;;;;;;;;;;;;;25.36;42.99;98989.03;5041004;28;19999;-48
2022/05/30 05:01:44;;;;;;;;;;;;;;;25.42;42.69;98995.13;5039121;28;19909;-51
2022/05/30 05:04:11;;;;;;;;;;;;;;;25.99;41.39;98994.16;5039663;28;20074;-50
2022/05/30 05:06:37;;;;;;;;;;;;;;;26.61;40.31;98970.19;5040201;28;19968;-50
2022/05/30 05:09:04;;;;;;;;;;;;;;;26.20;40.55;98987.97;5039009;28;19909;-48
2022/05/30 05:11:31;;;;;;;;;;;;;;;26.98;39.71;98992.28;5040734;28;19915;-49
2022/05/30 05:13:57;;;;;;;;;;;;;;;26.78;39.80;98999.31;5038515;28;19917;-51
2022/05/30 05:16:24;;;;;;;;;;;;;;;27.02;39.26;99004.16;5041965;28;20431;-49
2022/05/30 05:18:50;;;;;;;;;;;;;;;27.34;38.72;98997.22;5039268;28;19913;-49
2022/05/30 05:21:20;;;;;;;;;;;;;;;27.13;38.98;99002.66;5039547;28;19912;-51
2022/05/30 05:23:46;;;;;;;;;;;;;;;27.42;38.06;99010.00;5040431;28;19909;-48
2022/05/30 05:26:11;;;;;;;;;;;;;;;27.08;38.72;99006.34;5039522;28;19970;-51
2022/05/30 05:28:36;;;;;;;;;;;;;;;27.13;38.42;99002.66;5038967;28;20369;-50
2022/05/30 05:31:02;;;;;;;;;;;;;;;26.99;38.23;99011.06;5040444;28;19959;-48
2022/05/30 05:33:28;;;;;;;;;;;;;;;26.77;38.96;99014.91;5039127;28;19990;-51
2022/05/30 05:35:53;;;;;;;;;;;;;;;26.66;39.07;99010.94;5032480;28;19909;-50
2022/05/30 05:38:18;;;;;;;;;;;;;;;27.23;38.38;99026.81;5030250;28;19916;-52
2022/05/30 05:40:47;;;;;;;;;;;;;;;27.04;38.76;99030.00;5030298;28;19916;-48
2022/05/30 05:43:12;;;;;;;;;;;;;;;26.27;40.21;99021.00;5034559;28;20400;-51
2022/05/30 05:45:39;;;;;;;;;;;;;;;26.52;39.59;99022.84;5036454;28;19909;-51
2022/05/30 05:48:05;;;;;;;;;;;;;;;26.56;39.28;99028.44;5036355;28;19920;-50
2022/05/30 05:50:30;;;;;;;;;;;;;;;27.18;38.52;99035.19;5037401;28;19912;-52
2022/05/30 05:52:56;;;;;;;;;;;;;;;26.85;38.93;99029.63;5037214;28;20400;-50
2022/05/30 05:55:22;;;;;;;;;;;;;;;27.23;38.28;99034.22;5037185;28;19916;-49
2022/05/30 05:57:47;;;;;;;;;;;;;;;27.46;37.94;99035.53;5036485;28;19913;-51
2022/05/30 06:00:12;;;;;;;;;;;;;;;27.87;37.50;99042.09;5037080;28;19916;-50
2022/05/30 06:02:38;;;;;;;;;;;;;;;28.78;35.62;99049.50;5037017;28;19983;-51
2022/05/30 06:05:04;;;;;;;;;;;;;;;28.28;36.15;99043.16;5037096;28;19909;-51
2022/05/30 06:07:29;;;;;;;;;;;;;;;28.13;36.32;99049.25;5037024;28;19919;-51
2022/05/30 06:09:55;;;;;;;;;;;;;;;28.67;35.34;99053.84;5036794;28;20353;-50
2022/05/30 06:12:20;;;;;;;;;;;;;;;28.26;36.16;99048.16;5036853;28;20008;-51
2022/05/30 06:14:45;;;;;;;;;;;;;;;28.41;36.12;99045.91;5036847;28;20330;-48
2022/05/30 06:17:11;;;;;;;;;;;;;;;28.76;35.55;99060.00;5036762;28;19909;-38
2022/05/30 06:19:36;;;;;;;;;;;;;;;28.71;34.81;99057.50;5036563;28;19912;-37
2022/05/30 06:22:01;;;;;;;;;;;;;;;29.06;34.92;99065.25;5036764;28;19978;-38
2022/05/30 06:24:26;;;;;;;;;;;;;;;28.31;36.12;99057.28;5036573;28;20345;-37
2022/05/30 06:26:52;;;;;;;;;;;;;;;28.54;35.59;99064.00;5036150;28;20404;-38
2022/05/30 06:29:17;;;;;;;;;;;;;;;28.48;36.26;99059.81;5036005;28;19909;-38
2022/05/30 06:31:42;;;;;;;;;;;;;;;28.43;36.13;99071.78;5035896;28;19928;-38
2022/05/30 06:34:08;;;;;;;;;;;;;;;28.88;35.71;99067.41;5036102;28;20278;-38
2022/05/30 06:36:34;;;;;;;;;;;;;;;28.66;36.42;99079.63;5036303;28;20380;-38
2022/05/30 06:39:00;;;;;;;;;;;;;;;29.31;35.33;99074.25;5037210;28;19999;-38
2022/05/30 06:41:29;;;;;;;;;;;;;;;29.71;34.73;99083.66;5036608;28;19931;-38
2022/05/30 06:43:56;;;;;;;;;;;;;;;29.42;35.83;99069.91;5035948;28;19915;-38
2022/05/30 06:46:21;;;;;;;;;;;;;;;30.10;34.28;99068.34;5035712;28;19909;-38
2022/05/30 06:48:47;;;;;;;;;;;;;;;30.23;33.83;99071.78;5035959;28;19971;-38
2022/05/30 06:51:13;;;;;;;;;;;;;;;29.65;34.24;99074.09;5033662;28;19913;-38
2022/05/30 06:53:43;;;;;;;;;;;;;;;30.30;33.14;99066.50;5033689;28;19913;-37
2022/05/30 06:56:16;;;;;;;;;;;;;;;30.62;33.02;99069.31;5032250;28;19963;-38
2022/05/30 06:58:43;;;;;;;;;;;;;;;30.76;32.10;99075.13;5032858;28;19963;-37
2022/05/30 07:01:09;;;;;;;;;;;;;;;30.10;33.18;99078.50;5032763;28;19909;-38
2022/05/30 07:03:34;;;;;;;;;;;;;;;29.02;34.56;99073.34;5032809;28;19916;-37
2022/05/30 07:06:04;;;;;;;;;;;;;;;29.55;34.03;99073.44;5032366;28;19909;-37
2022/05/30 07:08:29;;;;;;;;;;;;;;;29.29;34.70;99064.81;5032635;28;19963;-37
2022/05/30 07:10:55;;;;;;;;;;;;;;;29.34;33.79;99067.28;5032947;28;19909;-38
2022/05/30 07:13:20;;;;;;;;;;;;;;;29.63;33.91;99072.47;5032106;28;19909;-38
2022/05/30 07:15:48;;;;;;;;;;;;;;;29.49;33.70;99074.00;5032549;28;19909;-38
2022/05/30 07:18:15;;;;;;;;;;;;;;;28.77;35.21;99075.28;5032328;28;19924;-38
2022/05/30 07:20:40;;;;;;;;;;;;;;;30.00;34.03;99071.56;5032758;28;19909;-37
2022/05/30 07:23:06;;;;;;;;;;;;;;;30.50;32.28;99072.13;5032197;28;19916;-37
2022/05/30 07:25:34;;;;;;;;;;;;;;;30.55;32.64;99063.63;5032777;28;20059;-37
2022/05/30 07:28:00;;;;;;;;;;;;;;;30.75;31.70;99065.31;5032130;28;19917;-38
2022/05/30 07:30:25;;;;;;;;;;;;;;;30.79;31.61;99066.19;5032146;28;20317;-39
2022/05/30 07:32:50;;;;;;;;;;;;;;;31.18;31.01;99069.09;5032156;28;19971;-38
2022/05/30 07:35:16;;;;;;;;;;;;;;;30.49;32.12;99070.53;5032211;28;20016;-38
2022/05/30 07:37:42;;;;;;;;;;;;;;;30.46;32.47;99080.25;5031971;28;19952;-37
2022/05/30 07:40:08;;;;;;;;;;;;;;;31.01;31.07;99065.94;5031848;28;19920;-37
2022/05/30 07:42:33;;;;;;;;;;;;;;;30.13;32.44;99072.31;5031989;28;20008;-37
2022/05/30 07:44:59;;;;;;;;;;;;;;;29.14;33.93;99066.31;5031467;28;19993;-37
2022/05/30 07:47:24;;;;;;;;;;;;;;;29.90;32.94;99075.63;5031355;28;20229;-37
2022/05/30 07:49:49;;;;;;;;;;;;;;;29.94;32.81;99081.19;5031923;28;19912;-39
2022/05/30 07:52:15;;;;;;;;;;;;;;;30.67;31.10;99076.47;5032265;28;19916;-38
2022/05/30 07:54:41;;;;;;;;;;;;;;;30.01;32.56;99073.97;5031686;28;19921;-37
2022/05/30 07:57:06;;;;;;;;;;;;;;;30.53;32.59;99076.91;5031944;28;19916;-37
2022/05/30 07:59:32;;;;;;;;;;;;;;;30.95;32.40;99076.41;5031735;28;20397;-37
2022/05/30 08:01:58;;;;;;;;;;;;;;;31.31;31.00;99072.50;5031746;28;19913;-36
2022/05/30 08:04:23;;;;;;;;;;;;;;;31.34;30.68;99073.78;5031502;28;19909;-38
2022/05/30 08:06:48;;;;;;;;;;;;;;;31.15;30.85;99074.53;5030782;28;19913;-37
2022/05/30 08:09:13;;;;;;;;;;;;;;;31.17;31.12;99075.75;5032086;28;20003;-37
2022/05/30 08:11:39;;;;;;;;;;;;;;;31.31;30.47;99071.72;5031670;28;20317;-38
2022/05/30 08:14:06;;;;;;;;;;;;;;;31.08;31.04;99077.88;5031732;28;19912;-37
2022/05/30 08:16:31;;;;;;;;;;;;;;;30.95;31.27;99070.91;5031158;28;19916;-37
2022/05/30 08:18:57;;;;;;;;;;;;;;;30.88;30.91;99076.19;5031194;28;19913;-39
2022/05/30 08:21:22;;;;;;;;;;;;;;;29.78;32.61;99084.69;5031270;28;20261;-39
2022/05/30 08:23:47;;;;;;;;;;;;;;;29.85;32.73;99083.28;5031346;28;20360;-39
2022/05/30 08:26:15;;;;;;;;;;;;;;;29.66;32.86;99089.38;5030869;28;19947;-40
2022/05/30 08:28:41;;;;;;;;;;;;;;;30.84;31.45;99078.84;5031063;28;19909;-38
2022/05/30 08:31:06;;;;;;;;;;;;;;;31.61;30.42;99084.97;5030636;28;20277;-38
2022/05/30 08:33:32;;;;;;;;;;;;;;;30.73;31.85;99088.78;5030779;28;19916;-38
2022/05/30 08:41:47;;;;;;;;;;;;;;;30.60;31.85;99090.84;5031087;28;20396;-37
2022/05/30 08:44:13;;;;;;;;;;;;;;;31.29;32.41;99093.28;5031166;28;19916;-38
2022/05/30 08:47:00;;;;;;;;;;;;;;;31.20;31.36;99098.97;5030582;28;19913;-37
2022/05/30 08:49:35;;;;;;;;;;;;;;;30.73;31.92;99105.25;5030479;28;20011;-38
2022/05/30 08:52:03;;;;;;;;;;;;;;;31.16;31.67;99103.56;5030823;28;20434;-38
2022/05/30 08:54:28;;;;;;;;;;;;;;;31.29;31.15;99101.53;5030695;28;19959;-38
2022/05/30 08:56:54;;;;;;;;;;;;;;;31.29;30.77;99102.31;5030645;28;20262;-38
2022/05/30 08:59:23;;;;;;;;;;;;;;;31.35;31.71;99100.09;5030396;28;19952;-38
2022/05/30 09:01:55;;;;;;;;;;;;;;;31.40;32.09;99108.06;5030668;28;20428;-41
2022/05/30 09:04:24;;;;;;;;;;;;;;;31.05;31.72;99111.56;5030727;28;19948;-37
2022/05/30 09:06:53;;;;;;;;;;;;;;;31.65;31.83;99114.13;5030110;28;19917;-37
2022/05/30 09:09:25;;;;;;;;;;;;;;;31.89;29.74;99104.81;5029618;28;19909;-37
2022/05/30 09:11:57;;;;;;;;;;;;;;;31.60;30.21;99119.13;5030099;28;19909;-37
2022/05/30 09:14:43;;;;;;;;;;;;;;;31.42;30.62;99115.94;5029848;28;19948;-38
2022/05/30 09:17:13;;;;;;;;;;;;;;;30.94;31.07;99105.81;5029229;28;19909;-37
2022/05/30 09:19:39;;;;;;;;;;;;;;;31.26;30.94;99114.00;5030108;28;19913;-38
2022/05/30 09:22:07;;;;;;;;;;;;;;;31.28;30.90;99111.72;5030002;28;19970;-38
2022/05/30 09:24:34;;;;;;;;;;;;;;;31.79;29.79;99113.63;5029990;28;19915;-36
2022/05/30 09:27:00;;;;;;;;;;;;;;;31.12;30.60;99109.00;5029628;28;19920;-36
2022/05/30 09:29:35;;;;;;;;;;;;;;;31.55;30.07;99114.69;5029856;28;19959;-38
2022/05/30 09:32:18;;;;;;;;;;;;;;;31.16;30.18;99118.09;5029196;28;19949;-38
2022/05/30 09:34:46;;;;;;;;;;;;;;;31.76;29.00;99103.38;5029690;28;19948;-38
2022/05/30 09:37:25;;;;;;;;;;;;;;;31.28;30.01;99100.72;5029822;28;19909;-38
2022/05/30 09:39:50;;;;;;;;;;;;;;;31.30;29.54;99117.66;5030485;28;19944;-37
2022/05/30 09:42:22;;;;;;;;;;;;;;;31.24;29.61;99112.78;5029720;28;19963;-38
2022/05/30 09:44:49;;;;;;;;;;;;;;;30.73;30.03;99111.56;5029438;28;20389;-37
2022/05/30 09:47:18;;;;;;;;;;;;;;;31.21;29.27;99108.81;5029540;28;20452;-38
2022/05/30 09:49:45;;;;;;;;;;;;;;;31.35;29.68;99113.81;5029918;28;19909;-38
2022/05/30 09:52:30;;;;;;;;;;;;;;;31.69;29.42;99104.00;5029801;28;19913;-37
2022/05/30 09:54:56;;;;;;;;;;;;;;;32.08;28.81;99105.97;5029751;28;19925;-38
2022/05/30 09:57:23;;;;;;;;;;;;;;;32.23;28.61;99104.28;5029595;28;19909;-38
2022/05/30 09:59:50;;;;;;;;;;;;;;;32.38;28.62;99103.41;5029471;28;20373;-38
2022/05/30 10:02:22;;;;;;;;;;;;;;;32.18;28.89;99105.41;5029712;28;20389;-38
2022/05/30 10:04:52;;;;;;;;;;;;;;;31.75;29.45;99107.25;5029998;28;19913;-37
2022/05/30 10:07:19;;;;;;;;;;;;;;;32.34;28.49;99119.06;5029691;28;19917;-38
2022/05/30 10:09:52;;;;;;;;;;;;;;;32.20;28.16;99105.03;5029740;28;19909;-39
2022/05/30 10:12:44;;;;;;;;;;;;;;;32.31;28.73;99114.28;5029881;28;19967;-39
2022/05/30 10:15:28;;;;;;;;;;;;;;;32.14;28.97;99107.28;5028432;28;19909;-38
2022/05/30 10:17:55;;;;;;;;;;;;;;;32.51;27.98;99104.81;5029499;28;20385;-38
2022/05/30 10:20:22;;;;;;;;;;;;;;;32.55;28.89;99102.13;5029914;28;19913;-38
2022/05/30 10:28:42;;;;;;;;;;;;;;;31.98;28.96;99103.78;5030274;28;19963;-37
2022/05/30 10:31:26;;;;;;;;;;;;;;;32.30;28.00;99093.44;5033332;28;19928;-38
2022/05/30 10:34:14;;;;;;;;;;;;;;;33.07;27.37;99100.66;5039243;28;19920;-38
2022/05/30 10:36:58;;;;;;;;;;;;;;;33.22;27.29;99100.88;5033240;28;19916;-38
2022/05/30 10:39:40;;;;;;;;;;;;;;;33.92;26.41;99106.97;5033014;28;19920;-38
2022/05/30 10:42:10;;;;;;;;;;;;;;;33.17;27.07;99106.72;5033151;28;19909;-38
2022/05/30 10:44:39;;;;;;;;;;;;;;;33.02;26.72;99095.47;5036174;28;19912;-38
2022/05/30 10:47:07;;;;;;;;;;;;;;;33.19;26.93;99098.91;5052658;28;19999;-39
2022/05/30 10:49:38;;;;;;;;;;;;;;;33.82;25.72;99087.16;5053089;28;20004;-38
2022/05/30 10:52:06;;;;;;;;;;;;;;;33.85;25.33;99088.34;5053202;28;19924;-39
2022/05/30 10:54:39;;;;;;;;;;;;;;;33.78;27.19;99093.81;5053250;28;19955;-37
2022/05/30 10:57:10;;;;;;;;;;;;;;;33.69;27.45;99088.56;5052677;28;19915;-39
2022/05/30 10:59:45;;;;;;;;;;;;;;;33.46;27.43;99083.91;5053087;28;20007;-39
2022/05/30 11:02:29;;;;;;;;;;;;;;;33.44;27.38;99090.97;5052849;28;19909;-38
2022/05/30 11:05:14;;;;;;;;;;;;;;;33.38;26.43;99098.78;5052689;28;20355;-38
2022/05/30 11:07:40;;;;;;;;;;;;;;;33.45;26.64;99090.59;5051787;28;19960;-37
2022/05/30 11:10:12;;;;;;;;;;;;;;;32.77;27.12;99095.06;5052735;28;19944;-38
2022/05/30 11:12:39;;;;;;;;;;;;;;;32.89;26.39;99092.09;5052655;28;19932;-38
2022/05/30 11:15:08;;;;;;;;;;;;;;;33.00;26.65;99084.00;5052600;28;19908;-39
2022/05/30 11:17:37;;;;;;;;;;;;;;;33.17;26.28;99087.41;5052517;28;20064;-39
2022/05/30 11:20:09;;;;;;;;;;;;;;;33.49;25.63;99077.66;5052635;28;19947;-38
2022/05/30 11:22:40;;;;;;;;;;;;;;;33.30;26.82;99077.75;5052497;28;20423;-38
2022/05/30 11:25:07;;;;;;;;;;;;;;;33.80;25.62;99083.19;5052592;28;19909;-39
2022/05/30 11:27:41;;;;;;;;;;;;;;;33.76;26.04;99091.41;5052140;28;19916;-38
2022/05/30 11:30:06;;;;;;;;;;;;;;;33.62;25.43;99082.91;5052105;28;19905;-38
2022/05/30 11:32:41;;;;;;;;;;;;;;;33.09;27.10;99086.50;5052372;28;19958;-38
2022/05/30 11:35:26;;;;;;;;;;;;;;;33.73;25.45;99083.88;5044602;28;19909;-39
2022/05/30 11:37:58;;;;;;;;;;;;;;;34.49;24.30;99084.72;5032721;28;19908;-38
2022/05/30 11:40:45;;;;;;;;;;;;;;;34.63;23.81;99085.66;5031501;28;20011;-38
2022/05/30 11:43:26;;;;;;;;;;;;;;;34.39;23.94;99087.00;5032334;28;19916;-36
2022/05/30 11:45:53;;;;;;;;;;;;;;;34.27;24.31;99090.84;5045561;28;19909;-38
2022/05/30 11:48:37;;;;;;;;;;;;;;;33.96;24.50;99086.50;5051911;28;19968;-37
2022/05/30 11:51:03;;;;;;;;;;;;;;;33.43;25.42;99084.66;5050455;28;20391;-39
2022/05/30 11:53:47;;;;;;;;;;;;;;;33.66;25.19;99086.53;5051827;28;19913;-37
2022/05/30 11:56:29;;;;;;;;;;;;;;;34.48;24.24;99086.69;5051736;28;19915;-38
2022/05/30 11:59:21;;;;;;;;;;;;;;;34.14;24.12;99094.19;5051884;28;19915;-37
2022/05/30 12:01:49;;;;;;;;;;;;;;;34.38;23.69;99048.72;5050321;28;19915;-38
2022/05/30 12:04:30;;;;;;;;;;;;;;;34.83;23.97;99085.44;5051504;28;20355;-38
2022/05/30 12:07:03;;;;;;;;;;;;;;;34.85;23.52;99083.09;5051515;28;20281;-39
2022/05/30 12:09:52;;;;;;;;;;;;;;;34.95;23.74;99079.59;5051339;28;19909;-38
2022/05/30 12:12:21;;;;;;;;;;;;;;;34.70;23.79;99084.16;5051472;28;19955;-38
2022/05/30 12:15:05;;;;;;;;;;;;;;;34.21;23.87;99088.78;5050118;28;20396;-38
2022/05/30 12:23:47;;;;;;;;;;;;;;;34.79;24.16;99081.84;5051057;28;20072;-38
2022/05/30 12:26:04;;;;;;;;;;;;;;;33.91;24.47;99091.56;5051270;28;20312;-38
2022/05/30 12:28:30;;;;;;;;;;;;;;;33.46;24.19;99081.16;5051083;28;20381;-38
2022/05/30 12:31:02;;;;;;;;;;;;;;;34.08;24.28;99086.28;5051064;28;19960;-38
2022/05/30 12:33:28;;;;;;;;;;;;;;;34.08;23.95;99085.47;5050387;28;19912;-38
2022/05/30 12:36:13;;;;;;;;;;;;;;;34.26;23.92;99083.72;5036835;28;19919;-38
2022/05/30 12:38:55;;;;;;;;;;;;;;;34.41;24.39;99089.41;5030784;28;19909;-38
2022/05/30 12:41:26;;;;;;;;;;;;;;;34.71;24.11;99082.97;5030696;28;20006;-38
2022/05/30 12:43:51;;;;;;;;;;;;;;;34.23;23.56;99076.22;5030735;28;19909;-37
2022/05/30 12:46:18;;;;;;;;;;;;;;;34.48;23.67;99078.38;5047307;28;19920;-37
2022/05/30 12:48:44;;;;;;;;;;;;;;;34.69;22.71;99077.03;5050296;28;19991;-38
2022/05/30 12:51:12;;;;;;;;;;;;;;;34.87;22.22;99077.97;5050440;28;20290;-37
2022/05/30 12:53:57;;;;;;;;;;;;;;;34.83;23.31;99085.44;5049346;28;20280;-36
2022/05/30 12:56:38;;;;;;;;;;;;;;;34.57;24.32;99080.84;5049973;28;19909;-37
2022/05/30 12:59:03;;;;;;;;;;;;;;;34.76;21.97;99068.81;5050392;28;19916;-38
2022/05/30 13:01:49;;;;;;;;;;;;;;;34.44;23.41;99061.00;5050320;28;19909;-38
2022/05/30 13:04:26;;;;;;;;;;;;;;;34.57;23.01;99070.59;5043180;28;20036;-38
2022/05/30 13:06:57;;;;;;;;;;;;;;;34.62;23.95;99074.97;5050066;28;20000;-37
2022/05/30 13:09:33;;;;;;;;;;;;;;;34.25;24.34;99076.63;5050337;28;19916;-38
2022/05/30 13:12:04;;;;;;;;;;;;;;;34.39;23.44;99072.41;5050607;28;19947;-37
2022/05/30 13:14:51;;;;;;;;;;;;;;;34.71;23.56;99082.97;5049715;28;19916;-37
2022/05/30 13:17:19;;;;;;;;;;;;;;;34.68;22.59;99075.44;5049848;28;19979;-38
2022/05/30 13:19:47;;;;;;;;;;;;;;;34.79;23.08;99068.84;5050065;28;19914;-38
2022/05/30 13:22:14;;;;;;;;;;;;;;;34.79;22.05;99079.09;5049960;28;19909;-37